Terminal Aerodrome Forecast
Issued by NWS

Home | Current Version | Previous Version | Text Only | Print | Product List | Glossary On
Versions: 1 2 3 4 5 6 7 8 9 10 11 12 13
000
FTUS44 KTSA 050520
TAFXNA
TAF
KXNA 050520Z 0506/0606 00000KT P6SM VCSH OVC100
      TEMPO 0512/0516 6SM -SHRA
     FM051800 20006KT P6SM VCTS BKN050CB OVC100
      TEMPO 0518/0522 4SM -TSRA BKN050CB
     FM060000 12004KT P6SM SCT050 SCT250
      TEMPO 0600/0604 4SM -TSRA BKN025CB=

USA.gov is the U.S. government's official web portal to all federal, state and local government web resources and services.